Data for 12/27/2008

Time Sea-Level Adjusted Pressure Absolute Pressure Temperature Relative Humidity Dew Point   
(mb) (inHg) (mb) (inHg) (C) (F) (%) (C) (F)
00:05 1013 29.91 842 24.86 -14.7 5.6 74 -18.4 -1
00:10 1013 29.91 842 24.86 -14.5 6 71 -18.6 -1.5
00:15 1013 29.91 842 24.86 -14.1 6.5 69 -18.6 -1.6
00:20 1013 29.91 842 24.86 -14.2 6.5 69 -18.6 -1.6
00:25 1013 29.91 842 24.86 -13.9 6.9 69 -18.4 -1.2
00:30 1013 29.91 842 24.86 -14 6.7 70 -18.4 -1.1
00:35 1013 29.91 842 24.86 -14.7 5.6 73 -18.5 -1.3
00:40 1013 29.91 842 24.86 -14.7 5.6 75 -18.2 -0.7
00:45 1013 29.91 842 24.86 -14 6.8 69 -18.5 -1.3
00:50 1013 29.91 842 24.86 -13.5 7.7 67 -18.4 -1.2
00:55 1013 29.91 842 24.86 -12.8 9 64 -18.3 -0.9
01:00 1013 29.91 842 24.86 -12.7 9.2 64 -18.2 -0.7
01:05 1013 29.91 842 24.86 -12.7 9.1 64 -18.1 -0.6
01:10 1013 29.91 842 24.86 -13.1 8.5 64 -18.4 -1.2
01:15 1013 29.91 842 24.86 -13.7 7.3 69 -18.3 -0.9
01:20 1013 29.91 842 24.86 -14 6.8 68 -18.8 -1.8
01:25 1013 29.91 842 24.86 -13.1 8.4 70 -17.5 0.6
01:30 1013 29.91 842 24.86 -13.1 8.5 67 -18 -0.5
01:35 1012 29.88 842 24.86 -13.4 8 67 -18.2 -0.8
01:40 1012 29.88 842 24.86 -13.3 8.1 68 -18 -0.4
01:45 1012 29.88 842 24.86 -13.2 8.3 66 -18.3 -0.9
01:50 1012 29.88 842 24.86 -13.1 8.5 71 -17.2 1
01:55 1012 29.88 841 24.83 -13 8.6 75 -16.5 2.3
02:00 1012 29.88 841 24.83 -13.1 8.5 71 -17.3 0.9
02:05 1012 29.88 841 24.83 -13 8.6 74 -16.8 1.8
02:10 1012 29.88 841 24.83 -12.8 8.9 72 -16.9 1.6
02:15 1012 29.88 841 24.83 -12.6 9.4 71 -16.7 1.9
02:20 1012 29.88 841 24.83 -12.6 9.3 71 -16.8 1.7
02:25 1012 29.88 841 24.83 -13 8.6 72 -17 1.3
02:30 1012 29.88 841 24.83 -13.1 8.5 72 -17.2 1.1
02:35 1012 29.88 841 24.83 -13.4 8 74 -17.1 1.2
02:40 1012 29.88 841 24.83 -13.5 7.8 73 -17.3 0.9
02:45 1012 29.88 841 24.83 -13.5 7.7 74 -17.2 1.1
02:50 1012 29.88 841 24.83 -13.5 7.8 75 -17.1 1.3
02:55 1012 29.88 841 24.83 -13.2 8.3 73 -17.1 1.3
03:00 1012 29.88 841 24.83 -12.7 9.2 73 -16.6 2.1
03:05 1012 29.88 841 24.83 -12.8 8.9 74 -16.6 2.2
03:10 1011 29.85 841 24.83 -13.4 7.9 76 -16.8 1.8
03:15 1011 29.85 841 24.83 -13.5 7.7 77 -16.8 1.8
03:20 1012 29.88 841 24.83 -13.1 8.5 70 -17.5 0.5
03:25 1011 29.85 841 24.83 -12.6 9.4 70 -17 1.3
03:30 1012 29.88 841 24.83 -12.1 10.2 68 -16.9 1.7
03:35 1012 29.88 841 24.83 -11.8 10.8 68 -16.6 2.1
03:40 1012 29.88 841 24.83 -11.4 11.4 66 -16.7 2
03:45 1012 29.88 841 24.83 -11.3 11.7 65 -16.5 2.2
03:50 1012 29.88 841 24.83 -11.1 11.9 68 -16 3.2
03:55 1012 29.88 841 24.83 -11.3 11.6 67 -16.3 2.7
04:00 1012 29.88 841 24.83 -11.2 11.9 69 -15.9 3.4
04:05 1011 29.85 841 24.83 -11.5 11.3 72 -15.6 3.9
04:10 1011 29.85 840 24.81 -11.5 11.2 69 -16.2 2.8
04:15 1011 29.85 840 24.81 -11.5 11.4 72 -15.5 4
04:20 1011 29.85 840 24.81 -11.3 11.7 69 -15.9 3.5
04:25 1011 29.85 840 24.81 -10.8 12.5 62 -16.7 1.9
04:30 1011 29.85 840 24.81 -10.4 13.4 62 -16.3 2.6
04:35 1011 29.85 840 24.81 -10.3 13.5 60 -16.6 2
04:40 1011 29.85 840 24.81 -10 14 62 -15.9 3.3
04:45 1011 29.85 840 24.81 -9.9 14.2 62 -15.9 3.4
04:50 1011 29.85 840 24.81 -9.7 14.5 63 -15.6 3.9
04:55 1011 29.85 840 24.81 -9.8 14.4 64 -15.3 4.4
05:00 1011 29.85 840 24.81 -9.8 14.3 65 -15.3 4.5
05:05 1011 29.85 840 24.81 -9.8 14.4 65 -15.2 4.6
05:10 1011 29.85 840 24.81 -9.8 14.3 63 -15.6 3.9
05:15 1011 29.85 840 24.81 -9.5 14.8 63 -15.4 4.3
05:20 1011 29.85 840 24.81 -9.4 15.1 62 -15.5 4.2
05:25 1011 29.85 840 24.81 -9.5 15 65 -14.8 5.3
05:30 1011 29.85 840 24.81 -9.7 14.6 66 -14.9 5.3
05:35 1011 29.85 840 24.81 -9.9 14.2 67 -14.9 5.2
05:40 1011 29.85 840 24.81 -9.7 14.6 64 -15.3 4.4
05:45 1011 29.85 840 24.81 -9.3 15.2 63 -15.1 4.7
05:50 1011 29.85 840 24.81 -9 15.8 64 -14.6 5.7
05:55 1011 29.85 840 24.81 -9 15.9 67 -14 6.7
06:00 1011 29.85 840 24.81 -9 15.9 66 -14.2 6.4
06:05 1011 29.85 840 24.81 -8.7 16.4 66 -14 6.8
06:10 1011 29.85 840 24.81 -8.6 16.5 66 -13.9 6.9
06:15 1011 29.85 840 24.81 -8.5 16.8 66 -13.7 7.4
06:20 1011 29.85 840 24.81 -8.4 16.9 68 -13.3 8.1
06:25 1011 29.85 840 24.81 -8.6 16.6 68 -13.4 7.9
06:30 1011 29.85 840 24.81 -8.7 16.4 66 -13.9 6.9
06:35 1011 29.85 840 24.81 -8.3 17.1 65 -13.8 7.1
06:40 1011 29.85 840 24.81 -8.1 17.4 66 -13.4 7.9
06:45 1011 29.85 840 24.81 -8.3 17 69 -13.1 8.5
06:50 1011 29.85 840 24.81 -8.8 16.1 68 -13.8 7.2
06:55 1011 29.85 840 24.81 -9.5 14.9 71 -13.8 7.2
07:00 1011 29.85 840 24.81 -9.8 14.4 73 -13.8 7.2
07:05 1011 29.85 840 24.81 -9.9 14.3 74 -13.6 7.5
07:10 1011 29.85 840 24.81 -9.8 14.4 71 -14 6.8
07:15 1011 29.85 840 24.81 -9.5 15 72 -13.6 7.6
07:20 1011 29.85 840 24.81 -9.4 15.1 71 -13.7 7.4
07:25 1011 29.85 840 24.81 -9.3 15.3 71 -13.7 7.4
07:30 1011 29.85 840 24.81 -9.2 15.4 70 -13.7 7.3
07:35 1011 29.85 840 24.81 -9.1 15.5 70 -13.7 7.4
07:40 1011 29.85 840 24.81 -9.2 15.5 71 -13.5 7.8
07:45 1011 29.85 840 24.81 -9.1 15.7 71 -13.5 7.7
07:50 1011 29.85 840 24.81 -8.8 16.1 69 -13.6 7.5
07:55 1011 29.85 840 24.81 -8.7 16.4 70 -13.2 8.2
08:00 1011 29.85 840 24.81 -8.8 16.2 73 -12.8 8.9
08:05 1011 29.85 840 24.81 -8.9 15.9 74 -12.7 9.2
08:10 1011 29.85 840 24.81 -9.1 15.6 76 -12.7 9.2
08:15 1011 29.85 840 24.81 -9.1 15.7 75 -12.8 9
08:20 1011 29.85 840 24.81 -8.8 16.2 71 -13.1 8.4
08:25 1011 29.85 840 24.81 -8.4 16.9 68 -13.2 8.2
08:30 1010 29.83 840 24.81 -8 17.6 68 -12.9 8.8
08:35 1010 29.83 840 24.81 -8.1 17.5 71 -12.5 9.5
08:40 1010 29.83 840 24.81 -8.1 17.4 73 -12.1 10.2
08:45 1010 29.83 839 24.78 -8.3 17 73 -12.3 9.9
08:50 1010 29.83 839 24.78 -8.2 17.3 72 -12.3 9.9
08:55 1010 29.83 839 24.78 -7.8 17.9 72 -12 10.4
09:00 1010 29.83 839 24.78 -7.7 18.1 73 -11.8 10.7
09:05 1010 29.83 840 24.81 -7.8 18 72 -12 10.4
09:10 1010 29.83 840 24.81 -7.7 18.1 72 -11.9 10.6
09:15 1010 29.83 840 24.81 -7.7 18.1 72 -11.9 10.6
09:20 1010 29.83 840 24.81 -7.6 18.3 70 -12.2 10.1
09:25 1010 29.83 840 24.81 -7.3 18.9 70 -11.8 10.7
09:30 1010 29.83 840 24.81 -7.3 18.9 70 -11.8 10.8
09:35 1011 29.85 840 24.81 -7.2 19 73 -11.3 11.6
09:40 1011 29.85 840 24.81 -6.9 19.5 72 -11.2 11.8
09:45 1010 29.83 840 24.81 -6.9 19.6 71 -11.2 11.8
09:50 1010 29.83 840 24.81 -6.6 20.2 71 -11.1 12.1
09:55 1010 29.83 840 24.81 -6.6 20.1 72 -10.9 12.3
10:00 1010 29.83 840 24.81 -6.6 20.1 70 -11.2 11.8
10:05 1010 29.83 840 24.81 -6.4 20.5 68 -11.4 11.5
10:10 1010 29.83 840 24.81 -6 21.3 67 -11.2 11.9
10:15 1010 29.83 840 24.81 -5.5 22.1 65 -11.1 12
10:20 1011 29.85 840 24.81 -5.7 21.7 67 -10.9 12.4
10:25 1010 29.83 840 24.81 -5.6 21.9 65 -11.2 11.8
10:30 1010 29.83 840 24.81 -5.4 22.2 62 -11.7 11
10:35 1010 29.83 840 24.81 -5.4 22.3 64 -11.2 11.9
10:40 1010 29.83 840 24.81 -5.3 22.5 63 -11.3 11.7
10:45 1010 29.83 839 24.78 -5.1 22.9 63 -11 12.2
10:50 1010 29.83 839 24.78 -5 23.1 64 -10.8 12.5
10:55 1010 29.83 839 24.78 -4.9 23.1 64 -10.7 12.8
11:00 1010 29.83 839 24.78 -5.1 22.8 66 -10.5 13.1
11:05 1010 29.83 839 24.78 -4.8 23.4 65 -10.4 13.2
11:10 1010 29.83 839 24.78 -4.6 23.7 67 -9.8 14.4
11:15 1010 29.83 839 24.78 -4.6 23.8 67 -9.8 14.4
11:20 1010 29.83 839 24.78 -4.5 24 68 -9.4 15.1
11:25 1010 29.83 839 24.78 -4 24.9 66 -9.5 14.9
11:30 1010 29.83 839 24.78 -3.3 26 63 -9.4 15
11:35 1010 29.83 839 24.78 -3.1 26.4 64 -9 15.8
11:40 1010 29.83 839 24.78 -3.1 26.5 62 -9.3 15.3
11:45 1010 29.83 839 24.78 -2.4 27.7 59 -9.3 15.3
11:50 1010 29.83 839 24.78 -2.2 28 59 -9.2 15.5
11:55 1010 29.83 839 24.78 -2.1 28.2 60 -8.9 16
12:00 1010 29.83 839 24.78 -1.8 28.8 54 -10 14
12:05 1010 29.83 839 24.78 -2 28.3 53 -10.5 13.2
12:10 1010 29.83 839 24.78 -2.1 28.2 51 -10.9 12.3
12:15 1010 29.83 839 24.78 -1.6 29 50 -10.7 12.8
12:20 1010 29.83 839 24.78 -2.5 27.4 55 -10.5 13.2
12:25 1010 29.83 839 24.78 -2.4 27.6 53 -10.9 12.4
12:30 1010 29.83 839 24.78 -2.5 27.5 53 -10.8 12.6
12:35 1010 29.83 839 24.78 -3.2 26.3 58 -10.3 13.5
12:40 1010 29.83 839 24.78 -3.7 25.3 59 -10.5 13
12:45 1010 29.83 839 24.78 -3.2 26.3 53 -11.4 11.5
12:50 1010 29.83 839 24.78 -3.4 25.9 57 -10.8 12.5
12:55 1010 29.83 839 24.78 -3.4 25.8 56 -11.1 12.1
13:00 1010 29.83 839 24.78 -3.4 26 56 -10.9 12.4
13:05 1010 29.83 839 24.78 -3.4 25.8 56 -11.1 12.1
13:10 1010 29.83 839 24.78 -3.5 25.7 58 -10.6 12.9
13:15 1010 29.83 839 24.78 -3.3 26.1 57 -10.7 12.7
13:20 1010 29.83 839 24.78 -3.4 25.9 58 -10.5 13
13:25 1010 29.83 839 24.78 -3.4 25.9 57 -10.7 12.8
13:30 1010 29.83 839 24.78 -3.2 26.3 56 -10.8 12.5
13:35 1010 29.83 839 24.78 -3.3 26.1 57 -10.7 12.7
13:40 1010 29.83 839 24.78 -3.6 25.5 57 -10.9 12.5
13:45 1010 29.83 839 24.78 -3.5 25.6 59 -10.4 13.2
13:50 1010 29.83 839 24.78 -3 26.5 58 -10.1 13.9
13:55 1010 29.83 839 24.78 -2.9 26.7 58 -10.2 13.7
14:00 1010 29.83 839 24.78 -2.8 26.9 58 -10 14
14:05 1010 29.83 839 24.78 -2.9 26.7 57 -10.3 13.5
14:10 1010 29.83 839 24.78 -2.7 27.1 59 -9.7 14.6
14:15 1010 29.83 839 24.78 -2.8 27.1 58 -10 14
14:20 1010 29.83 839 24.78 -2.7 27.2 56 -10.3 13.4
14:25 1010 29.83 839 24.78 -2.5 27.4 56 -10.1 13.8
14:30 1010 29.83 839 24.78 -2.4 27.7 56 -10 14.1
14:35 1010 29.83 839 24.78 -2.3 27.8 58 -9.6 14.7
14:40 1010 29.83 839 24.78 -2.4 27.7 57 -9.9 14.2
14:45 1010 29.83 839 24.78 -2.4 27.8 55 -10.1 13.8
14:50 1010 29.83 839 24.78 -2.7 27.1 59 -9.6 14.7
14:55 1010 29.83 839 24.78 -2.6 27.3 59 -9.7 14.6
15:00 1010 29.83 839 24.78 -2.6 27.2 59 -9.6 14.6
15:05 1010 29.83 839 24.78 -2.6 27.2 59 -9.6 14.8
15:10 1010 29.83 839 24.78 -2.6 27.4 59 -9.5 14.9
15:15 1010 29.83 839 24.78 -2.7 27.2 61 -9.2 15.5
15:20 1010 29.83 839 24.78 -3.2 26.3 63 -9.3 15.3
15:25 1010 29.83 839 24.78 -3.1 26.5 62 -9.4 15.1
15:30 1010 29.83 839 24.78 -3.2 26.3 63 -9.3 15.3
15:35 1010 29.83 839 24.78 -3.3 26 64 -9.1 15.6
15:40 1010 29.83 839 24.78 -3.3 26.1 63 -9.4 15.1
15:45 1010 29.83 839 24.78 -3.3 26.1 64 -9.2 15.4
15:50 1010 29.83 839 24.78 -3.1 26.3 65 -8.8 16.1
15:55 1010 29.83 839 24.78 -3 26.6 62 -9.2 15.4
16:00 1010 29.83 840 24.81 -2.8 26.9 66 -8.2 17.2
16:05 1010 29.83 840 24.81 -2.7 27.1 65 -8.4 16.9
16:10 1010 29.83 840 24.81 -2.9 26.7 67 -8.2 17.3
16:15 1011 29.85 840 24.81 -3 26.6 68 -8.1 17.4
16:20 1011 29.85 840 24.81 -3.1 26.4 68 -8.3 17.1
16:25 1011 29.85 840 24.81 -3.1 26.4 70 -7.9 17.8
16:30 1011 29.85 840 24.81 -3.1 26.4 68 -8.2 17.2
16:35 1011 29.85 840 24.81 -3.1 26.4 67 -8.4 17
16:40 1011 29.85 840 24.81 -3.2 26.3 66 -8.7 16.3
16:45 1011 29.85 840 24.81 -3.3 26.1 67 -8.6 16.6
16:50 1011 29.85 840 24.81 -3.3 26.1 67 -8.5 16.7
16:55 1011 29.85 840 24.81 -3.3 26.1 67 -8.5 16.7
17:00 1011 29.85 840 24.81 -3.3 26.1 67 -8.6 16.6
17:05 1011 29.85 840 24.81 -3.3 26.1 69 -8.1 17.4
17:10 1011 29.85 840 24.81 -3.4 26 69 -8.3 17
17:15 1011 29.85 840 24.81 -3.4 25.9 67 -8.6 16.5
17:20 1011 29.85 840 24.81 -3.3 26.1 66 -8.7 16.3
17:25 1011 29.85 840 24.81 -3.3 26.1 66 -8.7 16.4
17:30 1011 29.85 840 24.81 -3.2 26.3 67 -8.4 16.9
17:35 1011 29.85 840 24.81 -3.2 26.3 68 -8.4 17
17:40 1011 29.85 840 24.81 -3.1 26.4 67 -8.4 16.8
17:45 1011 29.85 840 24.81 -3 26.7 65 -8.6 16.5
17:50 1011 29.85 840 24.81 -3 26.7 66 -8.4 16.9
17:55 1011 29.85 840 24.81 -3 26.6 69 -8 17.7
18:00 1011 29.85 840 24.81 -3.3 26 71 -7.8 18
18:05 1011 29.85 840 24.81 -3.4 25.8 72 -7.9 17.9
18:10 1011 29.85 840 24.81 -3.5 25.8 72 -7.9 17.8
18:15 1011 29.85 840 24.81 -3.4 25.9 69 -8.2 17.3
18:20 1011 29.85 840 24.81 -3.3 26.1 70 -8 17.7
18:25 1011 29.85 840 24.81 -3.2 26.3 70 -7.8 17.9
18:30 1011 29.85 840 24.81 -3.1 26.4 69 -8.1 17.4
18:35 1011 29.85 840 24.81 -3.1 26.4 70 -7.9 17.8
18:40 1011 29.85 840 24.81 -3.2 26.3 69 -8 17.6
18:45 1011 29.85 840 24.81 -3.2 26.2 74 -7.2 19.1
18:50 1011 29.85 840 24.81 -3.6 25.6 76 -7.2 19
18:55 1011 29.85 840 24.81 -3.7 25.3 76 -7.3 18.8
19:00 1011 29.85 840 24.81 -3.7 25.3 76 -7.3 18.8
19:05 1011 29.85 840 24.81 -3.8 25.2 77 -7.3 18.9
19:10 1011 29.85 840 24.81 -3.8 25.1 76 -7.4 18.7
19:15 1011 29.85 840 24.81 -3.8 25.2 75 -7.6 18.3
19:20 1011 29.85 840 24.81 -3.8 25.2 75 -7.5 18.4
19:25 1011 29.85 840 24.81 -3.7 25.3 75 -7.6 18.3
19:30 1011 29.85 840 24.81 -3.7 25.3 75 -7.5 18.6
19:35 1011 29.85 840 24.81 -3.7 25.4 73 -7.8 17.9
19:40 1011 29.85 840 24.81 -3.7 25.4 71 -8.2 17.2
19:45 1011 29.85 840 24.81 -3.6 25.6 73 -7.7 18.2
19:50 1011 29.85 840 24.81 -3.7 25.3 74 -7.7 18.2
19:55 1011 29.85 840 24.81 -3.9 25.1 73 -7.9 17.7
20:00 1011 29.85 840 24.81 -3.8 25.1 73 -8 17.6
20:05 1011 29.85 840 24.81 -3.8 25.2 71 -8.3 17
20:10 1011 29.85 840 24.81 -3.6 25.5 70 -8.4 16.9
20:15 1011 29.85 840 24.81 -3.5 25.6 71 -8 17.6
20:20 1011 29.85 840 24.81 -3.4 25.8 70 -8.1 17.5
20:25 1011 29.85 840 24.81 -3.3 26.1 71 -7.8 17.9
20:30 1011 29.85 840 24.81 -3.2 26.3 72 -7.5 18.5
20:35 1011 29.85 840 24.81 -3.2 26.3 69 -8.1 17.5
20:40 1011 29.85 840 24.81 -3 26.5 71 -7.6 18.4
20:45 1011 29.85 840 24.81 -3 26.6 72 -7.3 18.8
20:50 1011 29.85 840 24.81 -3 26.6 70 -7.7 18.1
20:55 1011 29.85 840 24.81 -2.9 26.7 72 -7.4 18.7
21:00 1011 29.85 840 24.81 -3 26.6 68 -8 17.6
21:05 1011 29.85 840 24.81 -3 26.6 71 -7.6 18.4
21:10 1011 29.85 840 24.81 -3.1 26.3 74 -7.2 19.1
21:15 1011 29.85 840 24.81 -3.6 25.5 76 -7.2 19
21:20 1011 29.85 840 24.81 -3.8 25.2 72 -8.2 17.3
21:25 1011 29.85 840 24.81 -3.3 26.1 69 -8.3 17.1
21:30 1011 29.85 840 24.81 -2.8 27 66 -8.3 17.1
21:35 1011 29.85 840 24.81 -2.3 27.8 64 -8.2 17.2
21:40 1011 29.85 840 24.81 -1.9 28.5 63 -8.2 17.3
21:45 1011 29.85 840 24.81 -1.5 29.2 61 -8.1 17.4
21:50 1011 29.85 840 24.81 -1.2 29.9 60 -8.1 17.5
21:55 1011 29.85 840 24.81 -1.1 30 60 -7.9 17.8
22:00 1011 29.85 840 24.81 -1.2 29.8 61 -7.8 18
22:05 1011 29.85 840 24.81 -1.2 29.9 61 -7.7 18.1
22:10 1011 29.85 840 24.81 -0.9 30.3 60 -7.7 18.2
22:15 1011 29.85 840 24.81 -0.8 30.6 60 -7.6 18.3
22:20 1011 29.85 840 24.81 -0.6 30.9 61 -7.3 18.9
22:25 1011 29.85 841 24.83 -0.7 30.8 60 -7.5 18.5
22:30 1011 29.85 841 24.83 -0.6 31 60 -7.4 18.7
22:35 1011 29.85 841 24.83 -0.5 31 61 -7.2 19.1
22:40 1011 29.85 841 24.83 -0.7 30.7 60 -7.6 18.3
22:45 1011 29.85 841 24.83 -0.7 30.7 60 -7.7 18.2
22:50 1011 29.85 841 24.83 -0.6 31 58 -7.8 18
22:55 1011 29.85 840 24.81 -0.3 31.5 57 -7.7 18.2
23:00 1011 29.85 841 24.83 -0.3 31.5 57 -7.7 18.2
23:05 1011 29.85 840 24.81 -0.5 31.1 59 -7.5 18.5
23:10 1011 29.85 840 24.81 -0.7 30.7 61 -7.4 18.8
23:15 1011 29.85 840 24.81 -0.8 30.6 62 -7.1 19.2
23:20 1011 29.85 841 24.83 -0.5 31.1 62 -6.9 19.6
23:25 1011 29.85 841 24.83 -1.2 29.8 67 -6.5 20.3
23:30 1011 29.85 841 24.83 -2 28.3 69 -7 19.4
23:35 1011 29.85 841 24.83 -2.1 28.2 67 -7.5 18.5
23:40 1011 29.85 841 24.83 -1.7 28.9 66 -7.3 18.9
23:45 1011 29.85 841 24.83 0.2 32.4 59 -6.9 19.6
23:50 1011 29.85 841 24.83 0.8 33.4 58 -6.6 20.1
23:55 1012 29.88 841 24.83 0.9 33.5 56 -7 19.4
24:00 1011 29.85 841 24.83 0.8 33.4 56 -7 19.3